createdAt,value
2022-12-09T00:02:00.250Z,42.70
2022-12-09T00:04:26.955Z,39.63
2022-12-09T00:06:53.540Z,39.05
2022-12-09T00:09:19.928Z,42.05
2022-12-09T00:11:46.411Z,38.90
2022-12-09T00:14:13.025Z,42.88
2022-12-09T00:16:40.013Z,39.30
2022-12-09T00:19:07.418Z,40.13
2022-12-09T00:21:34.686Z,38.63
2022-12-09T00:24:06.371Z,34.08
2022-12-09T00:26:34.072Z,40.75
2022-12-09T00:29:01.262Z,41.80
2022-12-09T00:31:32.401Z,36.58
2022-12-09T00:34:05.005Z,34.45
2022-12-09T00:36:31.938Z,40.53
2022-12-09T00:38:59.178Z,36.80
2022-12-09T00:41:26.975Z,40.05
2022-12-09T00:43:54.295Z,34.22
2022-12-09T00:46:20.771Z,34.67
2022-12-09T00:48:47.587Z,40.05
2022-12-09T00:51:17.538Z,41.20
2022-12-09T00:53:44.910Z,38.97
2022-12-09T00:56:11.520Z,37.78
2022-12-09T00:58:37.906Z,41.03
2022-12-09T01:01:04.888Z,37.20
2022-12-09T01:03:31.467Z,36.38
2022-12-09T01:05:58.377Z,38.45
2022-12-09T01:08:25.100Z,39.00
2022-12-09T01:10:51.648Z,41.42
2022-12-09T01:13:18.061Z,42.67
2022-12-09T01:15:44.765Z,41.67
2022-12-09T01:18:13.707Z,39.60
2022-12-09T01:20:40.429Z,36.90
2022-12-09T01:23:07.097Z,37.78
2022-12-09T01:25:34.136Z,39.08
2022-12-09T01:28:00.977Z,38.60
2022-12-09T01:30:27.733Z,37.25
2022-12-09T01:32:54.110Z,36.97
2022-12-09T01:35:20.684Z,39.00
2022-12-09T01:37:47.461Z,40.22
2022-12-09T01:40:16.872Z,38.13
2022-12-09T01:42:43.530Z,38.42
2022-12-09T01:45:22.237Z,41.10
2022-12-09T01:47:54.271Z,42.17
2022-12-09T01:50:20.966Z,39.70
2022-12-09T01:52:49.265Z,39.05
2022-12-09T01:55:16.819Z,35.22
2022-12-09T01:57:45.098Z,40.33
2022-12-09T02:00:14.067Z,42.33
2022-12-09T02:02:43.706Z,34.60
2022-12-09T02:05:11.678Z,39.13
2022-12-09T02:07:38.485Z,38.95
2022-12-09T02:10:14.390Z,37.55
2022-12-09T02:12:53.017Z,39.97
2022-12-09T02:15:24.437Z,38.25
2022-12-09T02:17:55.321Z,35.60
2022-12-09T02:20:31.157Z,34.15
2022-12-09T02:23:36.123Z,36.55
2022-12-09T02:26:27.410Z,37.78
2022-12-09T02:29:11.976Z,41.40
2022-12-09T02:32:11.575Z,39.00
2022-12-09T02:34:45.682Z,38.13
2022-12-09T02:37:31.302Z,36.97
2022-12-09T02:40:03.861Z,36.33
2022-12-09T02:42:34.953Z,41.95
2022-12-09T02:45:03.962Z,41.88
2022-12-09T02:47:33.322Z,42.78
2022-12-09T02:50:05.974Z,41.17
2022-12-09T02:52:35.631Z,37.28
2022-12-09T02:55:07.175Z,39.53
2022-12-09T02:57:36.029Z,41.78
2022-12-09T03:00:06.473Z,38.90
2022-12-09T03:02:36.919Z,45.88
2022-12-09T03:05:16.828Z,41.78
2022-12-09T03:07:56.070Z,46.53
2022-12-09T03:10:28.951Z,42.80
2022-12-09T03:13:04.477Z,42.63
2022-12-09T03:15:35.440Z,44.42
2022-12-09T03:18:07.176Z,42.90
2022-12-09T03:20:38.155Z,39.13
2022-12-09T03:23:06.472Z,43.65
2022-12-09T03:25:38.407Z,43.75
2022-12-09T03:28:14.520Z,43.22
2022-12-09T03:30:45.407Z,44.50
2022-12-09T03:33:15.346Z,42.13
2022-12-09T03:35:46.301Z,43.90
2022-12-09T03:38:18.467Z,44.35
2022-12-09T03:40:50.216Z,46.38
2022-12-09T03:43:24.484Z,50.00
2022-12-09T03:45:54.686Z,43.30
2022-12-09T03:48:22.836Z,47.13
2022-12-09T03:51:00.522Z,48.75
2022-12-09T03:53:40.833Z,46.05
2022-12-09T03:56:18.747Z,46.95
2022-12-09T03:58:47.549Z,45.67
2022-12-09T04:01:15.271Z,43.72
2022-12-09T04:03:45.099Z,46.03
2022-12-09T04:06:11.597Z,49.55
2022-12-09T04:08:38.134Z,52.40
2022-12-09T04:11:04.711Z,47.05
2022-12-09T04:13:31.212Z,49.38
2022-12-09T04:15:57.633Z,48.22
2022-12-09T04:18:24.551Z,50.45
2022-12-09T04:20:51.147Z,48.65
2022-12-09T04:23:17.615Z,48.97
2022-12-09T04:25:43.970Z,50.55
2022-12-09T04:28:10.342Z,50.42
2022-12-09T04:30:36.854Z,52.72
2022-12-09T04:33:03.306Z,53.17
2022-12-09T04:35:29.890Z,48.58
2022-12-09T04:37:56.590Z,53.55
2022-12-09T04:40:24.070Z,63.80
2022-12-09T04:42:50.748Z,54.80
2022-12-09T04:45:17.264Z,47.75
2022-12-09T04:47:44.004Z,53.00
2022-12-09T04:50:11.513Z,53.63
2022-12-09T04:52:38.172Z,52.83
2022-12-09T04:55:05.189Z,57.13
2022-12-09T04:57:31.646Z,57.40
2022-12-09T04:59:58.043Z,54.58
2022-12-09T05:02:24.643Z,54.13
2022-12-09T05:04:51.516Z,57.92
2022-12-09T05:07:18.090Z,56.00
2022-12-09T05:09:45.176Z,55.75
2022-12-09T05:12:12.015Z,56.10
2022-12-09T05:14:38.452Z,59.67
2022-12-09T05:17:06.783Z,57.72
2022-12-09T05:19:33.898Z,54.35
2022-12-09T05:22:00.562Z,55.45
2022-12-09T05:24:27.245Z,58.28
2022-12-09T05:26:53.719Z,52.10
2022-12-09T05:29:23.087Z,58.20
2022-12-09T05:31:51.563Z,57.60
2022-12-09T05:34:18.367Z,56.17
2022-12-09T05:36:45.000Z,59.78
2022-12-09T05:39:11.623Z,58.38
2022-12-09T05:41:38.389Z,56.33
2022-12-09T05:44:05.146Z,56.58
2022-12-09T05:46:32.174Z,57.53
2022-12-09T05:48:58.779Z,51.90
2022-12-09T05:51:28.602Z,56.22
2022-12-09T05:53:56.709Z,50.92
2022-12-09T05:56:24.601Z,48.90
2022-12-09T05:58:52.397Z,50.85
2022-12-09T06:01:20.068Z,53.95
2022-12-09T06:03:48.280Z,52.25
2022-12-09T06:06:17.025Z,56.80
2022-12-09T06:08:45.176Z,52.38
2022-12-09T06:11:14.730Z,50.67
2022-12-09T06:13:41.521Z,44.17
2022-12-09T06:16:09.155Z,53.47
2022-12-09T06:18:36.922Z,54.08
2022-12-09T06:21:11.531Z,48.17
2022-12-09T06:23:41.437Z,55.10
2022-12-09T06:26:14.848Z,56.53
2022-12-09T06:28:41.637Z,53.85
2022-12-09T06:31:08.103Z,58.72
2022-12-09T06:33:54.204Z,51.75
2022-12-09T06:36:22.009Z,52.03
2022-12-09T06:38:48.473Z,55.33
2022-12-09T06:41:15.626Z,51.63
2022-12-09T06:43:42.599Z,50.97
2022-12-09T06:46:17.144Z,50.13
2022-12-09T06:48:44.638Z,54.70
2022-12-09T06:51:11.982Z,54.83
2022-12-09T06:53:38.564Z,54.40
2022-12-09T06:56:11.694Z,57.03
2022-12-09T06:58:39.788Z,59.35
2022-12-09T07:01:07.014Z,59.67
2022-12-09T07:03:34.012Z,54.90
2022-12-09T07:06:03.583Z,57.40
2022-12-09T07:08:30.227Z,59.00
2022-12-09T07:10:57.383Z,57.50
2022-12-09T07:13:25.370Z,53.40
2022-12-09T07:15:52.279Z,59.42
2022-12-09T07:18:19.213Z,55.72
2022-12-09T07:20:45.767Z,63.15
2022-12-09T07:23:13.748Z,56.83
2022-12-09T07:25:40.222Z,56.95
2022-12-09T07:28:06.753Z,57.03
2022-12-09T07:30:33.301Z,54.83
2022-12-09T07:32:59.969Z,58.25
2022-12-09T07:35:26.863Z,58.22
2022-12-09T07:37:55.288Z,56.70
2022-12-09T07:40:22.115Z,58.00
2022-12-09T07:42:48.904Z,58.75
2022-12-09T07:45:15.811Z,61.95
2022-12-09T07:47:42.504Z,54.88
2022-12-09T07:50:09.857Z,59.38
2022-12-09T07:52:36.467Z,55.30
2022-12-09T07:55:03.106Z,55.58
2022-12-09T07:57:34.132Z,59.83
2022-12-09T08:00:00.855Z,58.67
2022-12-09T08:02:27.622Z,57.80
2022-12-09T08:04:54.409Z,57.67
2022-12-09T08:07:21.078Z,52.22
2022-12-09T08:09:48.070Z,54.80
2022-12-09T08:12:14.610Z,58.45
2022-12-09T08:14:41.600Z,58.60
2022-12-09T08:17:08.122Z,53.35
2022-12-09T08:19:34.755Z,57.30
2022-12-09T08:22:01.635Z,58.33
2022-12-09T08:24:28.172Z,59.35
2022-12-09T08:26:55.011Z,58.65
2022-12-09T08:29:21.711Z,55.95
2022-12-09T08:31:49.073Z,58.40
2022-12-09T08:34:16.122Z,53.47
2022-12-09T08:36:43.341Z,61.22
2022-12-09T08:39:11.665Z,56.97
2022-12-09T08:41:39.865Z,57.38
2022-12-09T08:44:15.553Z,56.97
2022-12-09T08:46:45.504Z,59.15
2022-12-09T08:49:13.491Z,54.30
2022-12-09T08:51:40.515Z,54.10
2022-12-09T08:54:07.135Z,58.78
2022-12-09T08:56:34.377Z,61.35
2022-12-09T08:59:01.339Z,54.85
2022-12-09T09:01:32.961Z,59.22
2022-12-09T09:04:09.328Z,53.28
2022-12-09T09:06:38.599Z,59.95
2022-12-09T09:09:07.263Z,63.03
2022-12-09T09:11:34.864Z,66.47
2022-12-09T09:14:04.936Z,61.10
2022-12-09T09:16:32.120Z,59.00
2022-12-09T09:18:59.257Z,60.50
2022-12-09T09:21:26.965Z,56.72
2022-12-09T09:23:53.498Z,56.88
2022-12-09T09:26:24.634Z,53.88
2022-12-09T09:28:51.850Z,57.92
2022-12-09T09:31:21.606Z,52.53
2022-12-09T09:33:49.866Z,53.90
2022-12-09T09:36:20.762Z,59.67
2022-12-09T09:38:49.257Z,53.05
2022-12-09T09:41:36.313Z,60.97
2022-12-09T09:44:03.022Z,58.75
2022-12-09T09:46:44.128Z,58.13
2022-12-09T09:49:18.904Z,57.67
2022-12-09T09:51:46.815Z,56.77
2022-12-09T09:54:15.359Z,57.45
2022-12-09T09:56:56.598Z,60.58
2022-12-09T09:59:32.830Z,58.08
2022-12-09T10:02:09.646Z,60.72
2022-12-09T10:04:42.451Z,57.42
2022-12-09T10:07:19.988Z,60.92
2022-12-09T10:10:02.148Z,61.72
2022-12-09T10:13:11.041Z,61.55
2022-12-09T10:15:53.871Z,61.20
2022-12-09T10:18:27.887Z,57.05
2022-12-09T10:20:54.970Z,61.08
2022-12-09T10:23:23.428Z,61.28
2022-12-09T10:25:57.390Z,65.60
2022-12-09T10:28:29.928Z,64.30
2022-12-09T10:30:59.888Z,60.67
2022-12-09T10:33:34.348Z,65.75
2022-12-09T10:36:02.143Z,62.90
2022-12-09T10:38:30.463Z,64.03
2022-12-09T10:41:53.247Z,66.03
2022-12-09T10:44:22.500Z,63.00
2022-12-09T10:46:57.398Z,65.10
2022-12-09T10:49:25.378Z,65.13
2022-12-09T10:51:54.079Z,63.45
2022-12-09T10:54:40.282Z,63.35
2022-12-09T10:57:12.927Z,65.50
2022-12-09T10:59:42.476Z,65.20
2022-12-09T11:02:09.335Z,64.55
2022-12-09T11:04:42.772Z,66.35
2022-12-09T11:07:12.309Z,71.93
2022-12-09T11:09:42.799Z,69.57
2022-12-09T11:12:18.777Z,70.13
2022-12-09T11:14:52.714Z,76.35
2022-12-09T11:17:23.343Z,70.05
2022-12-09T11:19:53.286Z,72.53
2022-12-09T11:22:36.449Z,73.05
2022-12-09T11:25:27.236Z,71.65
2022-12-09T11:27:56.230Z,69.72
2022-12-09T11:31:19.865Z,73.30
2022-12-09T11:33:47.605Z,63.60
2022-12-09T11:36:26.491Z,68.38
2022-12-09T11:39:27.821Z,63.25
2022-12-09T11:42:18.971Z,59.80
2022-12-09T11:45:06.576Z,58.15
2022-12-09T11:50:25.073Z,64.50
2022-12-09T11:53:12.776Z,62.05
2022-12-09T11:55:49.834Z,56.88
2022-12-09T11:58:21.135Z,55.55
2022-12-09T12:01:26.616Z,63.28
2022-12-09T12:04:03.678Z,58.55
2022-12-09T12:06:43.515Z,56.22
2022-12-09T12:09:21.010Z,55.83
2022-12-09T12:12:02.650Z,59.60
2022-12-09T12:14:30.438Z,53.78
2022-12-09T12:17:16.655Z,53.63
2022-12-09T12:22:30.280Z,50.67
2022-12-09T12:25:33.499Z,52.33
2022-12-09T12:28:32.565Z,48.47
2022-12-09T12:31:01.522Z,47.17
2022-12-09T12:34:07.965Z,51.90
2022-12-09T12:36:42.716Z,44.53
2022-12-09T12:39:37.254Z,47.55
2022-12-09T12:42:23.268Z,46.92
2022-12-09T12:45:21.950Z,46.40
2022-12-09T12:47:48.203Z,45.45
2022-12-09T12:50:22.920Z,48.05
2022-12-09T12:52:56.724Z,44.60
2022-12-09T12:55:46.600Z,42.30
2022-12-09T12:58:39.056Z,43.92
2022-12-09T13:01:24.243Z,41.85
2022-12-09T13:04:00.599Z,43.35
2022-12-09T13:06:40.820Z,39.75
2022-12-09T13:09:47.748Z,42.47
2022-12-09T13:12:19.474Z,43.85
2022-12-09T13:14:53.634Z,42.30
2022-12-09T13:17:25.316Z,42.28
2022-12-09T13:19:56.326Z,42.22
2022-12-09T13:22:42.149Z,37.17
2022-12-09T13:25:42.546Z,43.13
2022-12-09T13:28:18.043Z,41.30
2022-12-09T13:30:54.403Z,41.40
2022-12-09T13:33:41.125Z,39.85
2022-12-09T13:36:20.990Z,43.83
2022-12-09T13:38:47.974Z,42.38
2022-12-09T13:41:26.631Z,44.53
2022-12-09T13:44:17.834Z,44.80
2022-12-09T13:46:44.978Z,46.58
2022-12-09T13:49:20.881Z,43.53
2022-12-09T13:51:51.554Z,45.38
2022-12-09T13:54:27.873Z,44.05
2022-12-09T13:57:22.195Z,48.63
2022-12-09T13:59:52.369Z,42.45
2022-12-09T14:02:37.272Z,47.53
2022-12-09T14:05:12.110Z,43.53
2022-12-09T14:07:46.110Z,44.97
2022-12-09T14:10:34.982Z,42.20
2022-12-09T14:13:17.750Z,49.30
2022-12-09T14:15:45.152Z,44.95
2022-12-09T14:18:33.006Z,46.25
2022-12-09T14:21:17.484Z,41.95
2022-12-09T14:24:09.054Z,43.88
2022-12-09T14:26:36.740Z,43.30
2022-12-09T14:29:04.173Z,46.55
2022-12-09T14:31:44.507Z,47.50
2022-12-09T14:34:23.620Z,49.95
2022-12-09T14:37:01.090Z,49.08
2022-12-09T14:39:35.183Z,44.78
2022-12-09T14:42:08.408Z,46.22
2022-12-09T14:44:50.235Z,44.40
2022-12-09T14:47:22.670Z,47.40
2022-12-09T14:49:50.684Z,42.00
2022-12-09T14:52:25.131Z,46.22
2022-12-09T14:54:54.082Z,45.60
2022-12-09T14:57:24.430Z,51.72
2022-12-09T14:59:54.103Z,45.80
2022-12-09T15:02:23.855Z,46.30
2022-12-09T15:04:52.333Z,47.92
2022-12-09T15:07:27.207Z,45.95
2022-12-09T15:10:04.094Z,41.10
2022-12-09T15:12:34.963Z,48.08
2022-12-09T15:15:07.246Z,45.72
2022-12-09T15:17:50.396Z,48.88
2022-12-09T15:20:47.876Z,48.95
2022-12-09T15:23:20.495Z,48.38
2022-12-09T15:25:50.318Z,44.13
2022-12-09T15:28:25.951Z,48.55
2022-12-09T15:30:58.838Z,46.13
2022-12-09T15:33:26.338Z,42.30
2022-12-09T15:35:57.978Z,47.70
2022-12-09T15:38:41.038Z,45.53
2022-12-09T15:41:33.626Z,51.42
2022-12-09T15:44:06.359Z,41.70
2022-12-09T15:46:36.280Z,42.38
2022-12-09T15:49:04.239Z,42.42
2022-12-09T15:51:31.498Z,36.40
2022-12-09T15:54:01.362Z,37.72
2022-12-09T15:56:40.556Z,39.92
2022-12-09T15:59:13.580Z,38.45
2022-12-09T16:01:42.053Z,42.45
2022-12-09T16:04:09.426Z,48.60
2022-12-09T16:06:37.617Z,40.67
2022-12-09T16:09:13.645Z,50.50
2022-12-09T16:11:45.835Z,44.90
2022-12-09T16:14:13.023Z,45.95
2022-12-09T16:17:00.277Z,49.58
2022-12-09T16:19:41.754Z,50.72
2022-12-09T16:22:11.057Z,49.63
2022-12-09T16:27:39.665Z,50.20
2022-12-09T16:30:13.996Z,52.25
2022-12-09T16:32:44.329Z,48.40
2022-12-09T16:35:10.588Z,55.92
2022-12-09T16:37:42.328Z,54.65
2022-12-09T16:40:32.874Z,52.08
2022-12-09T16:43:17.477Z,51.97
2022-12-09T16:45:46.857Z,56.78
2022-12-09T16:48:13.603Z,53.05
2022-12-09T16:50:46.344Z,50.80
2022-12-09T16:53:18.281Z,55.45
2022-12-09T16:56:02.150Z,56.28
2022-12-09T16:58:38.419Z,54.90
2022-12-09T17:01:05.048Z,55.75
2022-12-09T17:03:38.120Z,59.58
2022-12-09T17:06:05.577Z,64.55
2022-12-09T17:08:32.088Z,57.15
2022-12-09T17:11:01.243Z,65.05
2022-12-09T17:13:28.258Z,60.38
2022-12-09T17:15:58.342Z,61.65
2022-12-09T17:18:26.120Z,58.80
2022-12-09T17:21:04.272Z,57.33
2022-12-09T17:23:36.118Z,60.25
2022-12-09T17:26:15.072Z,61.30
2022-12-09T17:31:10.312Z,52.97
2022-12-09T17:33:36.955Z,59.80
2022-12-09T17:36:03.870Z,63.42
2022-12-09T17:38:30.308Z,57.92
2022-12-09T17:40:56.977Z,52.38
2022-12-09T17:43:23.350Z,59.67
2022-12-09T17:45:49.839Z,62.63
2022-12-09T17:48:16.187Z,70.40
2022-12-09T17:50:42.701Z,60.53
2022-12-09T17:53:09.199Z,61.45
2022-12-09T17:55:38.221Z,58.70
2022-12-09T17:58:04.653Z,60.83
2022-12-09T18:00:32.063Z,55.58
2022-12-09T18:02:58.404Z,54.22
2022-12-09T18:05:24.773Z,56.15
2022-12-09T18:07:51.292Z,49.78
2022-12-09T18:10:17.720Z,50.78
2022-12-09T18:12:44.102Z,51.97
2022-12-09T18:15:10.938Z,49.33
2022-12-09T18:17:37.296Z,54.33
2022-12-09T18:20:04.323Z,53.67
2022-12-09T18:22:30.800Z,51.95
2022-12-09T18:24:57.149Z,60.30
2022-12-09T18:27:23.553Z,59.00
2022-12-09T18:29:49.873Z,58.53
2022-12-09T18:32:16.217Z,58.97
2022-12-09T18:34:43.198Z,59.78
2022-12-09T18:37:09.684Z,56.03
2022-12-09T18:39:36.738Z,57.30
2022-12-09T18:42:03.593Z,60.65
2022-12-09T18:44:29.944Z,56.40
2022-12-09T18:46:56.278Z,56.63
2022-12-09T18:49:24.692Z,59.85
2022-12-09T18:51:52.632Z,58.00
2022-12-09T18:54:24.781Z,63.42
2022-12-09T18:56:51.544Z,57.35
2022-12-09T18:59:19.269Z,52.97
2022-12-09T19:01:46.947Z,49.65
2022-12-09T19:04:16.150Z,50.47
2022-12-09T19:06:45.089Z,49.53
2022-12-09T19:09:23.262Z,58.45
2022-12-09T19:11:51.240Z,56.05
2022-12-09T19:14:19.504Z,51.47
2022-12-09T19:16:46.921Z,52.00
2022-12-09T19:19:16.648Z,50.60
2022-12-09T19:21:44.169Z,50.97
2022-12-09T19:24:17.295Z,52.72
2022-12-09T19:26:44.164Z,51.85
2022-12-09T19:31:42.284Z,49.00
2022-12-09T19:34:13.542Z,48.15
2022-12-09T19:36:40.270Z,48.22
2022-12-09T19:39:08.397Z,47.47
2022-12-09T19:41:35.797Z,49.58
2022-12-09T19:44:04.573Z,49.03
2022-12-09T19:46:31.714Z,49.35
2022-12-09T19:48:58.645Z,52.08
2022-12-09T19:51:26.458Z,48.70
2022-12-09T19:53:54.801Z,45.92
2022-12-09T19:56:21.867Z,54.80
2022-12-09T19:58:49.006Z,46.97
2022-12-09T20:01:22.811Z,50.13
2022-12-09T20:04:25.496Z,47.10
2022-12-09T20:06:52.937Z,46.45
2022-12-09T20:09:24.160Z,57.35
2022-12-09T20:11:51.893Z,61.22
2022-12-09T20:14:18.924Z,53.15
2022-12-09T20:16:45.344Z,56.70
2022-12-09T20:19:11.748Z,48.67
2022-12-09T20:21:39.784Z,49.67
2022-12-09T20:24:06.861Z,48.08
2022-12-09T20:26:36.179Z,53.00
2022-12-09T20:29:07.843Z,48.72
2022-12-09T20:31:36.515Z,48.30
2022-12-09T20:34:06.429Z,50.15
2022-12-09T20:36:34.787Z,53.00
2022-12-09T20:39:05.054Z,51.85
2022-12-09T20:41:31.690Z,52.58
2022-12-09T20:43:59.717Z,54.40
2022-12-09T20:46:31.085Z,47.63
2022-12-09T20:48:58.704Z,54.00
2022-12-09T20:51:33.806Z,56.80
2022-12-09T20:54:00.824Z,50.25
2022-12-09T20:56:28.948Z,55.13
2022-12-09T20:58:56.321Z,52.15
2022-12-09T21:01:25.692Z,51.60
2022-12-09T21:03:53.473Z,47.35
2022-12-09T21:06:21.808Z,50.50
2022-12-09T21:08:48.671Z,48.75
2022-12-09T21:11:21.319Z,49.88
2022-12-09T21:13:50.044Z,55.47
2022-12-09T21:16:22.560Z,49.55
2022-12-09T21:18:50.651Z,48.38
2022-12-09T21:21:18.243Z,50.38
2022-12-09T21:23:44.773Z,51.90
2022-12-09T21:26:14.387Z,46.30
2022-12-09T21:28:42.270Z,49.05
2022-12-09T21:31:17.179Z,51.17
2022-12-09T21:33:45.144Z,56.15
2022-12-09T21:36:20.829Z,53.92
2022-12-09T21:43:42.253Z,41.10
2022-12-09T21:46:11.790Z,48.10
2022-12-09T21:48:39.138Z,52.33
2022-12-09T21:51:05.967Z,47.60
2022-12-09T21:53:33.119Z,50.50
2022-12-09T21:56:15.615Z,52.42
2022-12-09T21:58:43.653Z,54.60
2022-12-09T22:01:15.986Z,52.33
2022-12-09T22:03:43.110Z,53.58
2022-12-09T22:08:38.692Z,54.60
2022-12-09T22:11:14.685Z,55.20
2022-12-09T22:13:41.537Z,53.80
2022-12-09T22:16:13.570Z,53.00
2022-12-09T22:18:40.437Z,55.97
2022-12-09T22:21:26.717Z,50.67
2022-12-09T22:23:55.513Z,51.47
2022-12-09T22:26:22.982Z,52.42
2022-12-09T22:28:50.048Z,56.47
2022-12-09T22:31:22.710Z,49.10
2022-12-09T22:33:50.565Z,55.75
2022-12-09T22:36:18.234Z,54.95
2022-12-09T22:38:45.366Z,59.78
2022-12-09T22:41:14.508Z,57.28
2022-12-09T22:43:41.650Z,49.17
2022-12-09T22:46:19.089Z,50.38
2022-12-09T22:48:45.890Z,50.35
2022-12-09T22:51:15.773Z,46.85
2022-12-09T22:53:42.546Z,48.72
2022-12-09T22:56:10.632Z,49.70
2022-12-09T22:58:37.490Z,46.95
2022-12-09T23:01:12.124Z,47.45
2022-12-09T23:03:39.178Z,44.65
2022-12-09T23:06:06.725Z,52.22
2022-12-09T23:08:33.787Z,50.67
2022-12-09T23:11:06.714Z,44.58
2022-12-09T23:13:40.482Z,41.03
2022-12-09T23:16:09.113Z,38.17
2022-12-09T23:18:36.241Z,44.25
2022-12-09T23:21:04.703Z,41.60
2022-12-09T23:23:31.368Z,44.47
2022-12-09T23:26:06.302Z,42.30
2022-12-09T23:28:37.191Z,53.03
2022-12-09T23:31:05.013Z,37.42
2022-12-09T23:33:33.666Z,29.42
2022-12-09T23:36:08.321Z,37.55
2022-12-09T23:38:35.118Z,38.20
2022-12-09T23:41:02.080Z,41.58
2022-12-09T23:43:32.935Z,39.35
2022-12-09T23:46:04.016Z,38.97
2022-12-09T23:48:30.796Z,38.30
2022-12-09T23:50:57.674Z,39.28
2022-12-09T23:53:24.093Z,35.47
2022-12-09T23:55:51.086Z,37.85
2022-12-09T23:58:17.470Z,36.03
